Terminal Aerodrome Forecast
Issued by NWS Charleston, WV

Home | Current Version | Previous Version | Text Only | Print | Product List | Glossary On
Versions: 1 2 3 4 5 6 7 8 9 10 11 12 13 14 15 16 17 18 19 20 21 22
000
FTUS41 KRLX 131720
TAFPKB
TAF
KPKB 131720Z 1318/1418 17009KT P6SM FEW035 BKN080
     FM140400 24009KT P6SM OVC045
     FM140600 25010KT P6SM OVC020
     FM141400 32005KT P6SM BKN022=

USA.gov is the U.S. government's official web portal to all federal, state and local government web resources and services.